createdAt,value
2019-01-11T00:00:31.038Z,101884.08
2019-01-11T00:02:57.024Z,101879.87
2019-01-11T00:05:22.966Z,101877.37
2019-01-11T00:07:48.957Z,101881.13
2019-01-11T00:10:14.926Z,101870.23
2019-01-11T00:12:41.177Z,101865.66
2019-01-11T00:15:07.367Z,101875.67
2019-01-11T00:17:33.322Z,101868.13
2019-01-11T00:20:03.634Z,101865.17
2019-01-11T00:22:29.603Z,101857.63
2019-01-11T00:24:57.470Z,101855.11
2019-01-11T00:27:23.626Z,101850.92
2019-01-11T00:29:49.820Z,101848.83
2019-01-11T00:32:15.774Z,101855.89
2019-01-11T00:34:41.721Z,101851.30
2019-01-11T00:37:07.700Z,101846.69
2019-01-11T00:39:33.658Z,101840.84
2019-01-11T00:41:59.622Z,101846.27
2019-01-11T00:44:26.296Z,101853.78
2019-01-11T00:46:52.287Z,101847.95
2019-01-11T00:49:19.431Z,101841.70
2019-01-11T00:51:45.426Z,101834.19
2019-01-11T00:54:11.458Z,101832.55
2019-01-11T00:56:38.586Z,101827.11
2019-01-11T00:59:05.105Z,101830.36
2019-01-11T01:01:31.048Z,101820.71
2019-01-11T01:03:56.997Z,101826.98
2019-01-11T01:06:23.519Z,101823.62
2019-01-11T01:08:49.476Z,101819.42
2019-01-11T01:11:15.421Z,101811.45
2019-01-11T01:13:41.407Z,101814.81
2019-01-11T01:16:07.356Z,101811.45
2019-01-11T01:18:33.304Z,101812.70
2019-01-11T01:20:59.494Z,101802.63
2019-01-11T01:23:25.750Z,101806.80
2019-01-11T01:25:52.215Z,101804.70
2019-01-11T01:28:20.143Z,101799.25
2019-01-11T01:30:46.098Z,101792.97
2019-01-11T01:33:14.367Z,101794.20
2019-01-11T01:35:40.358Z,101795.43
2019-01-11T01:38:06.314Z,101779.11
2019-01-11T01:40:32.342Z,101776.99
2019-01-11T01:43:00.934Z,101771.10
2019-01-11T01:45:26.969Z,101761.87
2019-01-11T01:47:54.723Z,101764.71
2019-01-11T01:50:20.758Z,101758.00
2019-01-11T01:52:46.713Z,101744.62
2019-01-11T01:55:14.183Z,101747.09
2019-01-11T01:57:40.171Z,101741.69
2019-01-11T02:00:09.823Z,101733.36
2019-01-11T02:02:35.781Z,101739.20
2019-01-11T02:05:02.684Z,101732.10
2019-01-11T02:07:28.635Z,101727.53
2019-01-11T02:09:54.595Z,101719.58
2019-01-11T02:12:20.613Z,101716.23
2019-01-11T02:14:46.556Z,101709.17
2019-01-11T02:17:13.920Z,101705.39
2019-01-11T02:19:39.926Z,101708.30
2019-01-11T02:22:06.088Z,101707.05
2019-01-11T02:24:32.246Z,101707.89
2019-01-11T02:26:58.528Z,101705.83
2019-01-11T02:29:24.888Z,101702.91
2019-01-11T02:31:51.137Z,101705.41
2019-01-11T02:34:17.151Z,101695.39
2019-01-11T02:36:45.027Z,101688.32
2019-01-11T02:39:10.964Z,101682.49
2019-01-11T02:41:36.939Z,101675.41
2019-01-11T02:44:03.936Z,101683.78
2019-01-11T02:46:29.874Z,101667.08
2019-01-11T02:48:55.874Z,101659.98
2019-01-11T02:51:21.828Z,101656.25
2019-01-11T02:53:47.784Z,101650.42
2019-01-11T02:56:15.388Z,101641.66
2019-01-11T02:58:41.357Z,101635.81
2019-01-11T03:01:07.301Z,101633.30
2019-01-11T03:03:34.783Z,101628.71
2019-01-11T03:06:00.748Z,101622.45
2019-01-11T03:08:27.520Z,101625.80
2019-01-11T03:10:53.514Z,101627.05
2019-01-11T03:13:21.366Z,101620.34
2019-01-11T03:15:47.328Z,101619.07
2019-01-11T03:18:13.338Z,101609.47
2019-01-11T03:20:39.291Z,101604.47
2019-01-11T03:23:05.252Z,101608.20
2019-01-11T03:25:31.226Z,101596.54
2019-01-11T03:27:57.211Z,101586.92
2019-01-11T03:30:23.958Z,101590.22
2019-01-11T03:32:51.850Z,101587.30
2019-01-11T03:35:18.609Z,101583.11
2019-01-11T03:37:46.280Z,101581.41
2019-01-11T03:40:14.594Z,101578.48
2019-01-11T03:42:40.543Z,101566.39
2019-01-11T03:45:10.223Z,101577.62
2019-01-11T03:47:36.303Z,101565.94
2019-01-11T03:50:05.552Z,101568.02
2019-01-11T03:52:31.498Z,101565.08
2019-01-11T03:54:57.493Z,101562.98
2019-01-11T03:57:25.258Z,101565.92
2019-01-11T03:59:51.215Z,101559.64
2019-01-11T04:02:17.237Z,101558.42
2019-01-11T04:04:43.179Z,101552.57
2019-01-11T04:07:09.135Z,101550.07
2019-01-11T04:09:35.111Z,101543.81
2019-01-11T04:12:01.076Z,101545.06
2019-01-11T04:14:27.021Z,101530.88
2019-01-11T04:16:53.012Z,101536.70
2019-01-11T04:19:18.981Z,101528.37
2019-01-11T04:21:46.832Z,101530.44
2019-01-11T04:24:14.769Z,101530.41
2019-01-11T04:26:40.732Z,101518.34
2019-01-11T04:29:06.983Z,101515.82
2019-01-11T04:31:32.980Z,101510.39
2019-01-11T04:33:58.951Z,101509.98
2019-01-11T04:36:24.918Z,101514.15
2019-01-11T04:38:51.099Z,101506.62
2019-01-11T04:41:17.051Z,101507.83
2019-01-11T04:43:43.006Z,101503.25
2019-01-11T04:46:09.669Z,101495.32
2019-01-11T04:48:35.614Z,101495.70
2019-01-11T04:51:03.574Z,101495.70
2019-01-11T04:53:29.563Z,101486.53
2019-01-11T04:55:55.544Z,101485.70
2019-01-11T04:58:21.516Z,101484.83
2019-01-11T05:00:47.743Z,101475.68
2019-01-11T05:03:13.695Z,101474.81
2019-01-11T05:05:39.646Z,101472.31
2019-01-11T05:08:06.725Z,101476.07
2019-01-11T05:10:32.672Z,101463.97
2019-01-11T05:13:00.550Z,101468.57
2019-01-11T05:15:28.331Z,101467.32
2019-01-11T05:17:55.490Z,101450.20
2019-01-11T05:20:21.432Z,101454.36
2019-01-11T05:22:49.339Z,101441.05
2019-01-11T05:25:17.286Z,101427.31
2019-01-11T05:27:43.246Z,101421.86
2019-01-11T05:30:14.779Z,101416.02
2019-01-11T05:32:40.843Z,101406.88
2019-01-11T05:35:08.091Z,101413.13
2019-01-11T05:37:34.078Z,101407.30
2019-01-11T05:40:01.529Z,101392.29
2019-01-11T05:42:27.586Z,101400.61
2019-01-11T05:44:54.679Z,101389.80
2019-01-11T05:47:20.951Z,101379.81
2019-01-11T05:49:46.892Z,101374.79
2019-01-11T05:52:12.924Z,101375.63
2019-01-11T05:54:38.876Z,101366.06
2019-01-11T05:57:05.227Z,101382.75
2019-01-11T05:59:31.239Z,101378.16
2019-01-11T06:01:57.375Z,101382.77
2019-01-11T06:04:30.823Z,101374.84
2019-01-11T06:07:04.610Z,101384.86
2019-01-11T06:09:30.564Z,101379.47
2019-01-11T06:11:56.526Z,101364.46
2019-01-11T06:14:22.548Z,101381.14
2019-01-11T06:16:48.500Z,101372.78
2019-01-11T06:19:14.455Z,101364.86
2019-01-11T06:21:40.458Z,101371.52
2019-01-11T06:24:07.413Z,101357.77
2019-01-11T06:26:33.367Z,101352.77
2019-01-11T06:28:59.365Z,101359.01
2019-01-11T06:31:25.334Z,101340.69
2019-01-11T06:33:51.306Z,101346.09
2019-01-11T06:36:17.829Z,101346.52
2019-01-11T06:38:43.779Z,101348.59
2019-01-11T06:41:09.833Z,101348.16
2019-01-11T06:43:35.838Z,101339.01
2019-01-11T06:46:01.789Z,101328.55
2019-01-11T06:48:31.055Z,101333.98
2019-01-11T06:50:57.145Z,101330.62
2019-01-11T06:53:23.257Z,101321.03
2019-01-11T06:55:49.320Z,101317.70
2019-01-11T06:58:15.335Z,101328.09
2019-01-11T07:00:41.706Z,101322.27
2019-01-11T07:03:07.655Z,101322.25
2019-01-11T07:05:35.253Z,101332.64
2019-01-11T07:08:01.201Z,101325.15
2019-01-11T07:10:27.160Z,101318.53
2019-01-11T07:12:53.217Z,101312.73
2019-01-11T07:15:19.166Z,101306.89
2019-01-11T07:17:45.447Z,101298.57
2019-01-11T07:20:13.470Z,101294.82
2019-01-11T07:22:39.761Z,101292.33
2019-01-11T07:25:08.509Z,101287.33
2019-01-11T07:27:36.419Z,101290.24
2019-01-11T07:30:06.204Z,101274.03
2019-01-11T07:32:32.661Z,101279.45
2019-01-11T07:34:58.659Z,101271.95
2019-01-11T07:37:24.611Z,101267.80
2019-01-11T07:39:51.329Z,101259.46
2019-01-11T07:42:17.345Z,101261.56
2019-01-11T07:44:43.294Z,101244.88
2019-01-11T07:47:09.256Z,101242.38
2019-01-11T07:49:35.704Z,101245.29
2019-01-11T07:52:05.252Z,101235.71
2019-01-11T07:54:31.219Z,101224.00
2019-01-11T07:56:57.660Z,101216.08
2019-01-11T07:59:23.616Z,101210.22
2019-01-11T08:01:49.766Z,101216.87
2019-01-11T08:04:15.805Z,101203.11
2019-01-11T08:06:41.760Z,101194.75
2019-01-11T08:09:07.920Z,101178.89
2019-01-11T08:11:33.911Z,101178.46
2019-01-11T08:13:59.880Z,101203.47
2019-01-11T08:16:25.822Z,101177.60
2019-01-11T08:18:52.108Z,101170.06
2019-01-11T08:21:18.056Z,101169.23
2019-01-11T08:23:44.004Z,101165.47
2019-01-11T08:26:10.041Z,101152.92
2019-01-11T08:28:36.045Z,101161.25
2019-01-11T08:31:02.211Z,101162.05
2019-01-11T08:33:30.138Z,101154.54
2019-01-11T08:35:56.171Z,101143.63
2019-01-11T08:38:22.830Z,101139.88
2019-01-11T08:40:49.190Z,101131.55
2019-01-11T08:43:15.143Z,101112.75
2019-01-11T08:45:41.509Z,101093.52
2019-01-11T08:48:07.628Z,101105.23
2019-01-11T08:50:33.669Z,101093.95
2019-01-11T08:53:00.417Z,101085.13
2019-01-11T08:55:28.327Z,101065.02
2019-01-11T08:57:54.393Z,101059.53
2019-01-11T09:00:20.365Z,101062.84
2019-01-11T09:02:46.503Z,101060.37
2019-01-11T09:05:12.852Z,101049.06
2019-01-11T09:07:39.199Z,101046.55
2019-01-11T09:10:09.036Z,101051.54
2019-01-11T09:12:35.203Z,101030.64
2019-01-11T09:15:02.268Z,101029.36
2019-01-11T09:17:28.303Z,101011.36
2019-01-11T09:19:54.253Z,101046.02
2019-01-11T09:22:20.514Z,101013.42
2019-01-11T09:24:48.410Z,101013.80
2019-01-11T09:27:14.481Z,101019.24
2019-01-11T09:29:40.468Z,100980.72
2019-01-11T09:32:06.888Z,100993.61
2019-01-11T09:34:33.144Z,100979.43
2019-01-11T09:36:59.270Z,100970.20
2019-01-11T09:39:25.269Z,100975.59
2019-01-11T09:41:51.230Z,100984.34
2019-01-11T09:44:19.181Z,100965.07
2019-01-11T09:46:45.187Z,100966.33
2019-01-11T09:49:11.138Z,100975.14
2019-01-11T09:51:38.409Z,100958.03
2019-01-11T09:54:05.227Z,100957.58
2019-01-11T09:56:31.195Z,100933.37
2019-01-11T09:58:57.158Z,100942.56
2019-01-11T10:01:23.262Z,100947.20
2019-01-11T10:03:49.222Z,100943.41
2019-01-11T10:06:15.288Z,100942.19
2019-01-11T10:08:41.284Z,100948.84
2019-01-11T10:11:07.354Z,100940.93
2019-01-11T10:13:33.563Z,100929.64
2019-01-11T10:15:59.663Z,100922.99
2019-01-11T10:18:26.015Z,100923.03
2019-01-11T10:20:51.961Z,100930.48
2019-01-11T10:23:18.389Z,100919.16
2019-01-11T10:25:44.298Z,100908.66
2019-01-11T10:28:10.274Z,100911.97
2019-01-11T10:30:36.277Z,100908.61
2019-01-11T10:33:02.432Z,100905.23
2019-01-11T10:35:28.387Z,100890.14
2019-01-11T10:37:54.434Z,100885.16
2019-01-11T10:40:20.384Z,100885.20
2019-01-11T10:42:46.420Z,100882.31
2019-01-11T10:45:17.984Z,100881.90
2019-01-11T10:47:43.938Z,100878.17
2019-01-11T10:50:13.620Z,100863.05
2019-01-11T10:52:40.780Z,100870.06
2019-01-11T10:55:09.960Z,100858.30
2019-01-11T10:57:35.919Z,100847.76
2019-01-11T11:00:06.880Z,100860.30
2019-01-11T11:02:32.850Z,100846.00
2019-01-11T11:04:58.804Z,100836.42
2019-01-11T11:07:24.956Z,100830.56
2019-01-11T11:09:51.907Z,100824.23
2019-01-11T11:12:17.887Z,100825.41
2019-01-11T11:14:43.860Z,100805.41
2019-01-11T11:17:09.833Z,100794.13
2019-01-11T11:19:35.818Z,100800.45
2019-01-11T11:22:02.739Z,100788.33
2019-01-11T11:24:28.828Z,100788.74
2019-01-11T11:26:54.765Z,100817.55
2019-01-11T11:29:20.759Z,100766.05
2019-01-11T11:31:46.719Z,100775.98
2019-01-11T11:34:12.674Z,100768.81
2019-01-11T11:36:38.672Z,100755.80
2019-01-11T11:39:08.232Z,100750.31
2019-01-11T11:41:34.191Z,100756.16
2019-01-11T11:44:00.226Z,100751.03
2019-01-11T11:46:26.183Z,100751.73
2019-01-11T11:48:52.152Z,100744.94
2019-01-11T11:51:18.136Z,100744.88
2019-01-11T11:53:45.008Z,100748.17
2019-01-11T11:56:10.961Z,100732.14
2019-01-11T11:58:37.302Z,100718.97
2019-01-11T12:01:05.373Z,100717.86
2019-01-11T12:03:31.337Z,100714.53
2019-01-11T12:05:59.272Z,100689.73
2019-01-11T12:08:25.228Z,100688.33
2019-01-11T12:10:51.471Z,100691.92
2019-01-11T12:13:17.461Z,100696.62
2019-01-11T12:15:43.408Z,100706.88
2019-01-11T12:18:09.567Z,100684.34
2019-01-11T12:20:36.060Z,100678.19
2019-01-11T12:23:02.123Z,100684.61
2019-01-11T12:25:28.219Z,100682.27
2019-01-11T12:27:54.248Z,100664.34
2019-01-11T12:30:20.224Z,100641.79
2019-01-11T12:32:46.188Z,100637.59
2019-01-11T12:35:12.574Z,100630.14
2019-01-11T12:37:38.837Z,100618.48
2019-01-11T12:40:08.012Z,100615.80
2019-01-11T12:42:34.132Z,100611.19
2019-01-11T12:45:04.224Z,100606.29
2019-01-11T12:47:30.179Z,100594.23
2019-01-11T12:49:57.000Z,100588.48
2019-01-11T12:52:22.961Z,100584.33
2019-01-11T12:54:49.885Z,100599.84
2019-01-11T12:57:16.412Z,100584.02
2019-01-11T12:59:42.669Z,100579.41
2019-01-11T13:02:08.853Z,100582.70
2019-01-11T13:04:34.875Z,100566.73
2019-01-11T13:07:00.986Z,100567.98
2019-01-11T13:09:27.003Z,100563.83
2019-01-11T13:11:53.526Z,100570.56
2019-01-11T13:14:19.690Z,100574.80
2019-01-11T13:16:45.849Z,100572.30
2019-01-11T13:19:12.144Z,100552.16
2019-01-11T13:21:38.101Z,100556.83
2019-01-11T13:24:04.451Z,100558.58
2019-01-11T13:26:30.571Z,100556.22
2019-01-11T13:28:57.450Z,100548.61
2019-01-11T13:31:23.732Z,100559.21
2019-01-11T13:33:49.762Z,100543.80
2019-01-11T13:36:17.615Z,100544.68
2019-01-11T13:38:43.575Z,100548.93
2019-01-11T13:41:11.996Z,100526.84
2019-01-11T13:43:37.949Z,100532.75
2019-01-11T13:46:04.095Z,100531.94
2019-01-11T13:48:31.232Z,100517.83
2019-01-11T13:50:57.263Z,100505.76
2019-01-11T13:53:23.217Z,100512.52
2019-01-11T13:55:49.344Z,100492.88
2019-01-11T13:58:15.495Z,100484.91
2019-01-11T14:00:41.470Z,100505.36
2019-01-11T14:03:07.550Z,100506.66
2019-01-11T14:05:33.587Z,100513.72
2019-01-11T14:07:59.833Z,100503.08
2019-01-11T14:10:26.027Z,100502.22
2019-01-11T14:12:52.014Z,100499.30
2019-01-11T14:15:18.091Z,100478.86
2019-01-11T14:17:44.111Z,100486.81
2019-01-11T14:20:10.870Z,100468.48
2019-01-11T14:22:37.244Z,100473.03
2019-01-11T14:25:08.387Z,100485.92
2019-01-11T14:27:34.328Z,100473.80
2019-01-11T14:30:00.281Z,100464.59
2019-01-11T14:32:26.265Z,100461.66
2019-01-11T14:34:52.241Z,100467.51
2019-01-11T14:37:18.207Z,100453.31
2019-01-11T14:39:44.219Z,100452.52
2019-01-11T14:42:10.372Z,100462.06
2019-01-11T14:44:36.331Z,100457.83
2019-01-11T14:47:02.441Z,100454.83
2019-01-11T14:49:28.390Z,100454.36
2019-01-11T14:51:54.357Z,100429.24
2019-01-11T14:54:20.343Z,100434.95
2019-01-11T14:56:46.371Z,100435.92
2019-01-11T14:59:12.310Z,100446.23
2019-01-11T15:01:39.684Z,100429.91
2019-01-11T15:04:05.700Z,100424.81
2019-01-11T15:06:31.651Z,100426.55
2019-01-11T15:08:57.656Z,100426.63
2019-01-11T15:11:23.618Z,100431.30
2019-01-11T15:13:52.387Z,100439.24
2019-01-11T15:16:18.479Z,100429.15
2019-01-11T15:18:44.507Z,100427.47
2019-01-11T15:21:10.484Z,100438.79
2019-01-11T15:23:36.523Z,100437.94
2019-01-11T15:26:02.876Z,100418.28
2019-01-11T15:28:28.842Z,100430.88
2019-01-11T15:30:55.443Z,100430.05
2019-01-11T15:33:21.415Z,100433.41
2019-01-11T15:35:48.531Z,100408.73
2019-01-11T15:38:18.161Z,100420.91
2019-01-11T15:40:44.150Z,100408.73
2019-01-11T15:43:10.300Z,100403.62
2019-01-11T15:45:36.436Z,100401.94
2019-01-11T15:48:02.704Z,100406.08
2019-01-11T15:50:45.118Z,100401.45
2019-01-11T15:53:11.094Z,100406.91
2019-01-11T15:55:37.104Z,100405.28
2019-01-11T15:58:04.107Z,100404.82
2019-01-11T16:00:30.360Z,100396.36
2019-01-11T16:02:57.232Z,100404.66
2019-01-11T16:05:23.258Z,100404.64
2019-01-11T16:07:50.761Z,100416.63
2019-01-11T16:10:18.891Z,100408.19
2019-01-11T16:12:45.881Z,100408.99
2019-01-11T16:15:18.506Z,100409.34
2019-01-11T16:17:46.873Z,100413.44
2019-01-11T16:20:14.981Z,100406.73
2019-01-11T16:22:41.344Z,100410.88
2019-01-11T16:25:09.212Z,100407.02
2019-01-11T16:27:39.488Z,100397.80
2019-01-11T16:30:13.824Z,100398.62
2019-01-11T16:32:39.994Z,100392.29
2019-01-11T16:35:06.454Z,100387.75
2019-01-11T16:37:32.551Z,100382.30
2019-01-11T16:39:58.811Z,100379.05
2019-01-11T16:42:24.774Z,100378.03
2019-01-11T16:44:50.754Z,100381.38
2019-01-11T16:47:17.795Z,100375.09
2019-01-11T16:49:45.917Z,100384.72
2019-01-11T16:52:15.285Z,100394.34
2019-01-11T16:54:39.752Z,100403.94
2019-01-11T16:57:05.728Z,100404.24
2019-01-11T16:59:31.893Z,100402.34
2019-01-11T17:01:58.009Z,100398.04
2019-01-11T17:04:24.014Z,100404.30
2019-01-11T17:06:49.972Z,100406.25
2019-01-11T17:09:15.996Z,100407.02
2019-01-11T17:11:42.000Z,100408.73
2019-01-11T17:14:08.012Z,100425.00
2019-01-11T17:16:34.005Z,100420.40
2019-01-11T17:19:00.271Z,100414.97
2019-01-11T17:21:26.236Z,100409.94
2019-01-11T17:23:53.496Z,100418.07
2019-01-11T17:26:19.719Z,100415.96
2019-01-11T17:28:46.044Z,100414.70
2019-01-11T17:31:12.087Z,100407.16
2019-01-11T17:33:38.243Z,100409.19
2019-01-11T17:36:04.879Z,100408.77
2019-01-11T17:38:30.895Z,100409.11
2019-01-11T17:40:57.077Z,100413.27
2019-01-11T17:43:23.044Z,100418.29
2019-01-11T17:45:49.466Z,100412.38
2019-01-11T17:48:15.436Z,100417.61
2019-01-11T17:50:41.396Z,100413.48
2019-01-11T17:53:07.432Z,100415.59
2019-01-11T17:55:35.572Z,100418.59
2019-01-11T17:58:01.748Z,100418.28
2019-01-11T18:00:28.736Z,100425.39
2019-01-11T18:02:56.067Z,100423.23
2019-01-11T18:05:22.035Z,100433.63
2019-01-11T18:07:48.147Z,100436.55
2019-01-11T18:10:14.314Z,100426.06
2019-01-11T18:12:40.570Z,100428.49
2019-01-11T18:15:12.475Z,100431.44
2019-01-11T18:17:38.432Z,100429.66
2019-01-11T18:20:13.084Z,100428.66
2019-01-11T18:22:39.194Z,100435.41
2019-01-11T18:25:05.833Z,100429.92
2019-01-11T18:27:32.039Z,100440.84
2019-01-11T18:29:58.030Z,100442.97
2019-01-11T18:32:23.999Z,100438.82
2019-01-11T18:34:49.960Z,100443.02
2019-01-11T18:37:16.063Z,100445.54
2019-01-11T18:39:42.443Z,100453.49
2019-01-11T18:42:08.421Z,100451.75
2019-01-11T18:44:34.790Z,100455.92
2019-01-11T18:47:00.792Z,100461.33
2019-01-11T18:49:26.748Z,100458.38
2019-01-11T18:51:52.814Z,100461.73
2019-01-11T18:54:18.809Z,100468.79
2019-01-11T18:56:44.786Z,100462.89
2019-01-11T18:59:13.675Z,100465.02
2019-01-11T19:01:39.714Z,100459.98
2019-01-11T19:04:05.678Z,100468.42
2019-01-11T19:06:31.686Z,100465.92
2019-01-11T19:08:57.688Z,100469.25
2019-01-11T19:11:23.827Z,100463.01
2019-01-11T19:13:49.816Z,100471.81
2019-01-11T19:16:15.955Z,100465.19
2019-01-11T19:18:41.931Z,100466.21
2019-01-11T19:21:10.217Z,100475.75
2019-01-11T19:23:36.355Z,100471.79
2019-01-11T19:26:02.947Z,100477.89
2019-01-11T19:28:28.946Z,100483.91
2019-01-11T19:30:54.953Z,100481.59
2019-01-11T19:33:21.035Z,100480.58
2019-01-11T19:35:47.044Z,100477.83
2019-01-11T19:38:12.994Z,100494.80
2019-01-11T19:40:38.952Z,100497.43
2019-01-11T19:43:05.036Z,100500.02
2019-01-11T19:45:30.994Z,100502.16
2019-01-11T19:47:57.506Z,100503.69
2019-01-11T19:50:24.083Z,100500.75
2019-01-11T19:52:52.417Z,100505.30
2019-01-11T19:55:18.911Z,100507.87
2019-01-11T19:57:45.062Z,100510.95
2019-01-11T20:00:15.060Z,100519.86
2019-01-11T20:02:41.292Z,100514.14
2019-01-11T20:05:08.764Z,100515.53
2019-01-11T20:07:34.939Z,100520.62
2019-01-11T20:10:05.963Z,100518.97
2019-01-11T20:12:32.042Z,100514.00
2019-01-11T20:15:00.215Z,100519.44
2019-01-11T20:17:26.288Z,100509.48
2019-01-11T20:19:52.245Z,100514.17
2019-01-11T20:22:18.225Z,100518.83
2019-01-11T20:24:48.355Z,100516.03
2019-01-11T20:27:14.721Z,100516.55
2019-01-11T20:29:40.907Z,100517.50
2019-01-11T20:32:07.027Z,100518.00
2019-01-11T20:34:33.492Z,100526.88
2019-01-11T20:37:03.279Z,100523.59
2019-01-11T20:39:29.392Z,100526.22
2019-01-11T20:41:55.492Z,100528.79
2019-01-11T20:44:21.458Z,100529.70
2019-01-11T20:46:47.596Z,100534.39
2019-01-11T20:49:14.405Z,100539.05
2019-01-11T20:51:40.377Z,100536.59
2019-01-11T20:54:06.584Z,100536.19
2019-01-11T20:56:33.160Z,100537.50
2019-01-11T20:58:59.135Z,100541.32
2019-01-11T21:01:25.230Z,100542.21
2019-01-11T21:03:51.785Z,100544.36
2019-01-11T21:06:17.965Z,100545.64
2019-01-11T21:08:43.998Z,100549.88
2019-01-11T21:11:09.967Z,100550.77
2019-01-11T21:13:35.940Z,100554.58
2019-01-11T21:16:03.374Z,100557.56
2019-01-11T21:18:29.643Z,100553.39
2019-01-11T21:20:55.617Z,100557.62
2019-01-11T21:23:22.320Z,100558.46
2019-01-11T21:25:51.072Z,100559.30
2019-01-11T21:28:17.056Z,100559.73
2019-01-11T21:30:43.397Z,100556.02
2019-01-11T21:33:09.404Z,100556.02
2019-01-11T21:35:35.396Z,100562.33
2019-01-11T21:38:01.417Z,100558.11
2019-01-11T21:40:27.597Z,100556.08
2019-01-11T21:42:53.876Z,100562.36
2019-01-11T21:45:21.092Z,100556.55
2019-01-11T21:47:47.362Z,100554.03
2019-01-11T21:50:15.966Z,100561.21
2019-01-11T21:52:42.112Z,100565.23
2019-01-11T21:55:09.086Z,100558.72
2019-01-11T21:57:35.048Z,100565.56
2019-01-11T22:00:01.467Z,100566.11
2019-01-11T22:02:27.418Z,100567.89
2019-01-11T22:04:53.810Z,100564.61
2019-01-11T22:07:19.916Z,100563.04
2019-01-11T22:09:45.899Z,100562.72
2019-01-11T22:12:13.043Z,100561.53
2019-01-11T22:14:39.072Z,100566.18
2019-01-11T22:17:05.285Z,100568.31
2019-01-11T22:19:31.248Z,100576.27
2019-01-11T22:21:57.443Z,100571.71
2019-01-11T22:24:23.398Z,100568.42
2019-01-11T22:26:49.504Z,100559.66
2019-01-11T22:29:17.481Z,100564.72
2019-01-11T22:31:43.480Z,100566.84
2019-01-11T22:34:09.593Z,100570.98
2019-01-11T22:36:35.615Z,100572.66
2019-01-11T22:39:02.592Z,100576.41
2019-01-11T22:41:28.969Z,100575.62
2019-01-11T22:43:54.955Z,100581.89
2019-01-11T22:46:20.919Z,100577.34
2019-01-11T22:48:46.877Z,100575.77
2019-01-11T22:51:13.695Z,100573.73
2019-01-11T22:53:39.658Z,100579.25
2019-01-11T22:56:05.609Z,100582.22
2019-01-11T22:58:31.644Z,100578.52
2019-01-11T23:01:01.399Z,100573.97
2019-01-11T23:03:31.155Z,100582.73
2019-01-11T23:06:08.896Z,100578.79
2019-01-11T23:08:29.836Z,100575.07
2019-01-11T23:11:29.702Z,100573.45
2019-01-11T23:13:55.656Z,100573.50
2019-01-11T23:16:25.409Z,100571.05
2019-01-11T23:18:53.921Z,100569.45
2019-01-11T23:21:20.385Z,100575.72
2019-01-11T23:23:46.360Z,100574.52
2019-01-11T23:26:12.368Z,100578.73
2019-01-11T23:28:38.918Z,100580.86
2019-01-11T23:31:05.679Z,100587.16
2019-01-11T23:33:32.105Z,100585.13
2019-01-11T23:35:58.393Z,100588.91
2019-01-11T23:38:24.662Z,100599.42
2019-01-11T23:40:50.834Z,100593.59
2019-01-11T23:43:16.799Z,100598.62
2019-01-11T23:45:42.883Z,100604.89
2019-01-11T23:48:08.868Z,100605.30
2019-01-11T23:50:34.827Z,100608.64
2019-01-11T23:53:00.873Z,100613.23
2019-01-11T23:55:27.181Z,100608.64
2019-01-11T23:57:53.127Z,100618.23
